Airfield :
LOGIN :

Register | Disclaimer

   EN    FR    IT 

 










Legend :    VFR   Marginal VFR   IFR   Intensive IFR   Very Intensive IFR
Visi :
Ceiling :
>= 8 km
>= 3000ft
5 to 8 km
1000 to 3000 ft
1500m to 5 km
500 to 1000 ft
800 to 1500m
200 to 500 ft
< 800m
< 200 ft
Symbols :   Thunderstorms  Fog  Heavy snow  Heavy precipitations  Wind > 20 kt
SIGMETs :     Misc.  Thunderstorms  Icing  Turbulence  Mountain Waves  Volcanic Ashes






- Airport Elevation : 1966 ft
- IATA code : SGE


EDGS - Siegerland

CURRENT METAR :
  • 271650Z 07008KT 0800 0500/ R13/0750V1700N SN OVC002 M01/M01 Q0992

EXPIRED METARs :
  • 271620Z 08009KT 0800 0750/ R13/0900V1700D SN OVC002 M01/M01 Q0991
  • 271550Z 10009KT 0800 0750/ R13/1000V1700D SN OVC003 M01/M01 Q0991
  • 271520Z 11012KT 0700 0600/ R13/0750V1300D SN OVC002 M01/M01 Q0991

TAF TAF EDGS
Valid from the 27 at 15:00 until the 28 at 00:00 UTC


271400Z 2715/2724 12012KT 1900 -SN BKN004
TEMPO 2715/2724 1000 SN OVC001
PROB40
TEMPO 2715/2719 06012KT 0200 +SN OVC000
BECMG 2716/2719 02012KT
BECMG 2719/2721 31012KT



MET'MAP, your aeronautical weather chart ! - Copyright ORBIFLY December 2007 - Disclaimer

ORBIFLY MET'MAP TEAM :

Programming & Development : Alexandra Zaïnal
Concept & original design : Baudouin d'Aumeries
Assistance for programming : Marc-Olivier Méhu
Technical & hardware support : Manuel Goepfert

Contact : metmap@orbifly.com




SOURCES & CREDITS :

   NOAA